Sibenik, Croatia
Current Conditions -  °F | °C
As of 5:00 PM on Wednesday 28 Jan 2015 (Local Time) from LDSP Reporting Station
Clear Clear  
Wind Chill: 41°   Ceiling: Unl
Heat Index: 46°   Visibility: 6mi
Dew Point: 23°   Wind: 12mph
Humidity: 40%   Direction: 30°NNE
Pressure: 29.88"   Gusts: NA
Location:  43.74°N, 15.89°E
Report Text: LDSP 281600Z 03010KT 350V060 CAVOK 08/M05 Q1012 NOSIG
Loading
Personal Weather Stations






























Interactive Weather Map New forecast layout! Learn more

10-Day Weather Forecast

Advertisements
Track Severe Weather on mobile